createdAt,value
2018-06-19T00:02:23.154Z,24.23
2018-06-19T00:04:49.137Z,24.17
2018-06-19T00:07:15.117Z,24.17
2018-06-19T00:09:41.088Z,24.14
2018-06-19T00:12:07.078Z,24.16
2018-06-19T00:14:33.041Z,24.13
2018-06-19T00:16:59.010Z,24.13
2018-06-19T00:19:24.974Z,24.13
2018-06-19T00:21:50.968Z,24.15
2018-06-19T00:24:16.967Z,24.14
2018-06-19T00:26:42.984Z,24.12
2018-06-19T00:29:08.955Z,24.14
2018-06-19T00:31:34.911Z,24.22
2018-06-19T00:34:00.889Z,24.18
2018-06-19T00:36:26.851Z,24.18
2018-06-19T00:38:52.839Z,24.14
2018-06-19T00:41:18.816Z,24.16
2018-06-19T00:43:44.816Z,24.13
2018-06-19T00:46:10.784Z,24.09
2018-06-19T00:48:36.773Z,24.07
2018-06-19T00:51:02.750Z,24.15
2018-06-19T00:53:28.723Z,24.18
2018-06-19T00:55:54.714Z,24.20
2018-06-19T00:58:20.665Z,24.14
2018-06-19T01:00:46.628Z,24.09
2018-06-19T01:03:12.588Z,24.15
2018-06-19T01:05:38.578Z,24.08
2018-06-19T01:08:05.208Z,24.05
2018-06-19T01:10:31.175Z,24.06
2018-06-19T01:12:57.160Z,24.14
2018-06-19T01:15:23.149Z,24.20
2018-06-19T01:17:49.139Z,24.14
2018-06-19T01:20:15.095Z,24.19
2018-06-19T01:22:41.190Z,24.13
2018-06-19T01:25:07.157Z,24.14
2018-06-19T01:27:33.138Z,24.15
2018-06-19T01:29:59.135Z,24.26
2018-06-19T01:32:25.103Z,24.17
2018-06-19T01:34:51.062Z,24.12
2018-06-19T01:37:17.033Z,24.12
2018-06-19T01:39:43.020Z,24.17
2018-06-19T01:42:08.988Z,24.17
2018-06-19T01:44:34.965Z,24.16
2018-06-19T01:47:00.942Z,24.16
2018-06-19T01:49:26.922Z,24.16
2018-06-19T01:51:52.872Z,24.16
2018-06-19T01:54:18.828Z,24.10
2018-06-19T01:56:44.792Z,24.18
2018-06-19T01:59:10.751Z,24.17
2018-06-19T02:01:36.722Z,24.18
2018-06-19T02:04:02.700Z,24.15
2018-06-19T02:06:28.676Z,24.17
2018-06-19T02:08:54.633Z,24.11
2018-06-19T02:11:20.609Z,24.08
2018-06-19T02:13:46.572Z,24.13
2018-06-19T02:16:12.545Z,24.12
2018-06-19T02:18:38.532Z,24.12
2018-06-19T02:21:04.541Z,24.11
2018-06-19T02:23:30.503Z,24.13
2018-06-19T02:25:56.461Z,24.16
2018-06-19T02:28:22.556Z,24.15
2018-06-19T02:30:48.509Z,24.18
2018-06-19T02:33:14.467Z,24.19
2018-06-19T02:35:40.516Z,24.15
2018-06-19T02:38:06.484Z,24.17
2018-06-19T02:40:32.472Z,24.14
2018-06-19T02:42:58.441Z,24.16
2018-06-19T02:45:24.409Z,24.15
2018-06-19T02:47:50.397Z,24.12
2018-06-19T02:50:16.349Z,24.16
2018-06-19T02:52:42.304Z,24.14
2018-06-19T02:55:08.362Z,24.13
2018-06-19T02:57:34.317Z,24.11
2018-06-19T03:00:00.295Z,24.11
2018-06-19T03:02:26.260Z,24.08
2018-06-19T03:04:52.230Z,24.18
2018-06-19T03:07:18.227Z,24.12
2018-06-19T03:09:44.241Z,24.16
2018-06-19T03:12:10.217Z,24.11
2018-06-19T03:14:36.175Z,24.05
2018-06-19T03:17:02.138Z,24.12
2018-06-19T03:19:28.080Z,24.14
2018-06-19T03:21:54.043Z,24.10
2018-06-19T03:24:20.012Z,24.12
2018-06-19T03:26:46.009Z,24.11
2018-06-19T03:29:11.983Z,24.13
2018-06-19T03:31:37.950Z,24.17
2018-06-19T03:34:03.909Z,24.13
2018-06-19T03:36:29.869Z,24.15
2018-06-19T03:38:55.851Z,24.13
2018-06-19T03:41:21.818Z,24.15
2018-06-19T03:43:47.788Z,24.18
2018-06-19T03:46:13.774Z,24.18
2018-06-19T03:48:39.773Z,24.16
2018-06-19T03:51:05.904Z,24.21
2018-06-19T03:53:31.855Z,24.23
2018-06-19T03:55:57.822Z,24.18
2018-06-19T03:58:23.776Z,24.16
2018-06-19T04:00:49.755Z,24.20
2018-06-19T04:03:15.731Z,24.16
2018-06-19T04:05:41.704Z,24.18
2018-06-19T04:08:07.663Z,24.50
2018-06-19T04:10:33.773Z,24.22
2018-06-19T04:12:59.709Z,24.16
2018-06-19T04:15:25.662Z,24.17
2018-06-19T04:17:51.857Z,24.14
2018-06-19T04:20:17.819Z,24.15
2018-06-19T04:22:43.779Z,24.15
2018-06-19T04:25:09.847Z,24.18
2018-06-19T04:27:35.847Z,24.16
2018-06-19T04:30:01.823Z,24.17
2018-06-19T04:32:27.880Z,24.17
2018-06-19T04:34:53.849Z,24.14
2018-06-19T04:37:19.837Z,24.11
2018-06-19T04:39:45.984Z,24.13
2018-06-19T04:42:12.056Z,24.14
2018-06-19T04:44:37.988Z,24.13
2018-06-19T04:47:03.946Z,24.16
2018-06-19T04:49:29.907Z,24.13
2018-06-19T04:51:55.876Z,24.10
2018-06-19T04:54:21.847Z,24.15
2018-06-19T04:56:47.811Z,24.16
2018-06-19T04:59:13.775Z,24.10
2018-06-19T05:01:39.758Z,24.15
2018-06-19T05:04:05.743Z,24.14
2018-06-19T05:06:31.721Z,24.14
2018-06-19T05:08:57.686Z,24.09
2018-06-19T05:11:23.707Z,24.13
2018-06-19T05:13:49.714Z,24.17
2018-06-19T05:16:15.813Z,24.19
2018-06-19T05:18:41.777Z,24.14
2018-06-19T05:21:07.797Z,24.09
2018-06-19T05:23:33.771Z,24.16
2018-06-19T05:25:59.750Z,24.16
2018-06-19T05:28:25.752Z,24.15
2018-06-19T05:30:51.713Z,24.14
2018-06-19T05:33:17.684Z,24.14
2018-06-19T05:35:43.680Z,24.11
2018-06-19T05:38:09.654Z,24.12
2018-06-19T05:40:35.723Z,24.10
2018-06-19T05:43:01.780Z,24.11
2018-06-19T05:45:28.274Z,24.14
2018-06-19T05:47:54.231Z,24.12
2018-06-19T05:50:20.223Z,24.12
2018-06-19T05:52:46.273Z,24.15
2018-06-19T05:55:12.224Z,24.15
2018-06-19T05:57:38.265Z,24.17
2018-06-19T06:00:04.239Z,24.17
2018-06-19T06:02:30.207Z,24.12
2018-06-19T06:04:56.196Z,24.07
2018-06-19T06:07:22.405Z,24.08
2018-06-19T06:09:48.375Z,24.10
2018-06-19T06:12:14.474Z,24.10
2018-06-19T06:14:40.430Z,24.11
2018-06-19T06:17:06.551Z,24.07
2018-06-19T06:19:32.521Z,24.12
2018-06-19T06:21:58.478Z,24.13
2018-06-19T06:24:24.541Z,24.36
2018-06-19T06:26:51.525Z,24.21
2018-06-19T06:29:17.508Z,24.15
2018-06-19T06:31:43.521Z,24.15
2018-06-19T06:34:09.486Z,24.15
2018-06-19T06:36:35.453Z,24.15
2018-06-19T06:39:01.442Z,24.16
2018-06-19T06:41:27.405Z,24.09
2018-06-19T06:43:53.372Z,24.10
2018-06-19T06:46:19.351Z,24.12
2018-06-19T06:48:45.318Z,24.12
2018-06-19T06:51:11.280Z,24.14
2018-06-19T06:53:37.277Z,24.15
2018-06-19T06:56:03.265Z,24.25
2018-06-19T06:58:29.247Z,24.41
2018-06-19T07:00:55.252Z,24.25
2018-06-19T07:03:21.244Z,24.25
2018-06-19T07:05:47.214Z,24.27
2018-06-19T07:08:13.204Z,24.24
2018-06-19T07:10:39.180Z,24.33
2018-06-19T07:13:05.171Z,24.37
2018-06-19T07:15:31.229Z,24.36
2018-06-19T07:17:57.193Z,24.30
2018-06-19T07:20:23.202Z,24.36
2018-06-19T07:22:49.184Z,24.26
2018-06-19T07:25:15.183Z,24.28
2018-06-19T07:27:41.184Z,24.28
2018-06-19T07:30:07.193Z,24.26
2018-06-19T07:32:33.242Z,24.28
2018-06-19T07:34:59.217Z,24.38
2018-06-19T07:37:25.183Z,24.39
2018-06-19T07:39:51.148Z,24.34
2018-06-19T07:42:17.149Z,24.40
2018-06-19T07:44:43.144Z,24.42
2018-06-19T07:47:09.117Z,24.35
2018-06-19T07:49:35.108Z,24.40
2018-06-19T07:52:01.176Z,24.29
2018-06-19T07:54:27.147Z,24.27
2018-06-19T07:56:53.123Z,24.34
2018-06-19T07:59:19.094Z,24.26
2018-06-19T08:01:45.065Z,24.34
2018-06-19T08:04:11.017Z,24.26
2018-06-19T08:06:36.986Z,24.26
2018-06-19T08:09:03.065Z,24.23
2018-06-19T08:11:29.147Z,24.37
2018-06-19T08:13:55.160Z,24.41
2018-06-19T08:16:21.130Z,24.36
2018-06-19T08:18:47.153Z,24.54
2018-06-19T08:21:13.106Z,24.39
2018-06-19T08:23:39.059Z,24.51
2018-06-19T08:26:05.030Z,24.47
2018-06-19T08:28:31.019Z,24.48
2018-06-19T08:30:57.013Z,24.64
2018-06-19T08:33:22.993Z,24.57
2018-06-19T08:35:48.979Z,24.39
2018-06-19T08:38:14.947Z,24.36
2018-06-19T08:40:40.945Z,24.32
2018-06-19T08:43:06.961Z,24.38
2018-06-19T08:45:33.016Z,24.29
2018-06-19T08:47:59.056Z,24.37
2018-06-19T08:50:24.992Z,24.28
2018-06-19T08:52:50.978Z,24.25
2018-06-19T08:55:16.972Z,24.22
2018-06-19T08:57:42.974Z,24.31
2018-06-19T09:00:08.942Z,24.34
2018-06-19T09:02:34.961Z,24.45
2018-06-19T09:05:01.017Z,24.38
2018-06-19T09:07:27.056Z,24.40
2018-06-19T09:09:53.012Z,24.32
2018-06-19T09:12:18.967Z,24.36
2018-06-19T09:14:44.951Z,24.32
2018-06-19T09:17:10.936Z,24.35
2018-06-19T09:19:36.901Z,24.24
2018-06-19T09:22:02.893Z,24.26
2018-06-19T09:24:28.853Z,24.31
2018-06-19T09:26:54.849Z,24.24
2018-06-19T09:29:20.839Z,24.26
2018-06-19T09:31:46.809Z,24.25
2018-06-19T09:34:12.759Z,24.23
2018-06-19T09:36:38.737Z,24.17
2018-06-19T09:39:04.719Z,24.35
2018-06-19T09:41:30.703Z,24.33
2018-06-19T09:43:56.672Z,24.34
2018-06-19T09:46:22.661Z,24.42
2018-06-19T09:48:48.638Z,24.35
2018-06-19T09:51:14.635Z,24.59
2018-06-19T09:53:40.727Z,24.38
2018-06-19T09:56:06.666Z,24.35
2018-06-19T09:58:32.694Z,24.40
2018-06-19T10:00:58.702Z,24.43
2018-06-19T10:03:24.677Z,24.35
2018-06-19T10:05:50.638Z,24.36
2018-06-19T10:08:16.630Z,24.33
2018-06-19T10:10:42.611Z,24.29
2018-06-19T10:13:08.616Z,24.33
2018-06-19T10:15:34.592Z,24.35
2018-06-19T10:18:00.620Z,24.36
2018-06-19T10:20:26.621Z,24.31
2018-06-19T10:22:52.645Z,24.38
2018-06-19T10:25:18.640Z,24.39
2018-06-19T10:27:44.610Z,24.45
2018-06-19T10:30:10.614Z,24.46
2018-06-19T10:32:36.640Z,24.48
2018-06-19T10:35:04.609Z,24.51
2018-06-19T10:37:30.585Z,24.48
2018-06-19T10:39:56.594Z,24.52
2018-06-19T10:42:22.563Z,24.44
2018-06-19T10:44:48.541Z,24.44
2018-06-19T10:47:14.523Z,24.41
2018-06-19T10:49:40.495Z,24.39
2018-06-19T10:52:06.454Z,24.47
2018-06-19T10:54:32.430Z,24.37
2018-06-19T10:56:58.428Z,24.38
2018-06-19T10:59:24.402Z,24.43
2018-06-19T11:01:50.408Z,24.32
2018-06-19T11:04:16.430Z,24.44
2018-06-19T11:06:42.408Z,24.50
2018-06-19T11:09:08.385Z,24.57
2018-06-19T11:11:34.359Z,24.54
2018-06-19T11:14:00.339Z,24.52
2018-06-19T11:16:26.325Z,24.52
2018-06-19T11:18:52.323Z,24.51
2018-06-19T11:21:18.304Z,24.48
2018-06-19T11:23:44.296Z,24.44
2018-06-19T11:26:10.262Z,24.41
2018-06-19T11:28:36.235Z,24.50
2018-06-19T11:31:02.200Z,24.38
2018-06-19T11:33:28.168Z,24.49
2018-06-19T11:35:54.151Z,24.40
2018-06-19T11:38:20.140Z,24.29
2018-06-19T11:40:46.098Z,24.33
2018-06-19T11:43:12.074Z,24.33
2018-06-19T11:45:38.058Z,24.36
2018-06-19T11:48:04.026Z,24.42
2018-06-19T11:50:30.028Z,24.49
2018-06-19T11:52:56.001Z,24.53
2018-06-19T11:55:21.960Z,24.52
2018-06-19T11:57:47.940Z,24.48
2018-06-19T12:00:13.910Z,24.53
2018-06-19T12:02:39.914Z,24.54
2018-06-19T12:05:05.950Z,24.47
2018-06-19T12:07:31.903Z,24.60
2018-06-19T12:09:57.907Z,24.35
2018-06-19T12:12:23.882Z,24.38
2018-06-19T12:14:49.861Z,24.43
2018-06-19T12:17:15.839Z,24.38
2018-06-19T12:19:41.825Z,24.49
2018-06-19T12:22:07.797Z,24.36
2018-06-19T12:24:33.777Z,24.44
2018-06-19T12:26:59.824Z,24.43
2018-06-19T12:29:25.792Z,24.28
2018-06-19T12:31:51.753Z,24.28
2018-06-19T12:34:17.760Z,24.35
2018-06-19T12:36:43.736Z,24.28
2018-06-19T12:39:09.709Z,24.29
2018-06-19T12:41:35.717Z,24.43
2018-06-19T12:44:01.638Z,24.51
2018-06-19T12:46:27.602Z,24.41
2018-06-19T12:48:53.563Z,24.36
2018-06-19T12:51:19.557Z,24.34
2018-06-19T12:53:45.557Z,24.40
2018-06-19T12:56:11.536Z,24.41
2018-06-19T12:58:37.520Z,24.32
2018-06-19T13:01:03.497Z,24.36
2018-06-19T13:03:29.481Z,24.37
2018-06-19T13:05:55.453Z,24.34
2018-06-19T13:08:21.426Z,24.29
2018-06-19T13:10:47.385Z,24.29
2018-06-19T13:13:13.358Z,24.28
2018-06-19T13:15:39.322Z,24.33
2018-06-19T13:18:05.380Z,24.28
2018-06-19T13:20:31.372Z,24.37
2018-06-19T13:22:57.329Z,24.36
2018-06-19T13:25:23.279Z,24.37
2018-06-19T13:27:49.243Z,24.39
2018-06-19T13:30:15.236Z,24.45
2018-06-19T13:32:41.188Z,24.47
2018-06-19T13:35:07.189Z,24.36
2018-06-19T13:37:33.152Z,24.47
2018-06-19T13:39:59.138Z,24.47
2018-06-19T13:42:25.094Z,24.39
2018-06-19T13:44:51.074Z,24.40
2018-06-19T13:47:17.024Z,24.41
2018-06-19T13:49:43.012Z,24.36
2018-06-19T13:52:08.956Z,24.39
2018-06-19T13:54:34.907Z,24.39
2018-06-19T13:57:00.939Z,24.34
2018-06-19T13:59:26.901Z,24.33
2018-06-19T14:01:52.941Z,24.36
2018-06-19T14:04:18.834Z,24.39
2018-06-19T14:06:44.817Z,24.43
2018-06-19T14:09:10.866Z,24.49
2018-06-19T14:11:36.832Z,24.60
2018-06-19T14:14:02.812Z,24.61
2018-06-19T14:16:28.778Z,24.58
2018-06-19T14:18:54.779Z,24.46
2018-06-19T14:21:20.747Z,24.48
2018-06-19T14:23:46.757Z,24.36
2018-06-19T14:26:12.717Z,24.41
2018-06-19T14:28:38.680Z,24.34
2018-06-19T14:31:04.650Z,24.45
2018-06-19T14:33:30.615Z,24.49
2018-06-19T14:35:56.605Z,24.33
2018-06-19T14:38:22.586Z,24.36
2018-06-19T14:40:48.636Z,24.43
2018-06-19T14:43:14.635Z,24.39
2018-06-19T14:45:40.596Z,24.38
2018-06-19T14:48:06.681Z,24.38
2018-06-19T14:50:32.659Z,24.51
2018-06-19T14:52:58.617Z,24.48
2018-06-19T14:55:24.598Z,24.58
2018-06-19T14:57:50.545Z,24.60
2018-06-19T15:00:16.546Z,24.57
2018-06-19T15:02:42.665Z,24.56
2018-06-19T15:05:08.741Z,24.46
2018-06-19T15:07:34.733Z,24.51
2018-06-19T15:10:00.810Z,24.54
2018-06-19T15:12:26.816Z,24.43
2018-06-19T15:14:52.811Z,24.42
2018-06-19T15:17:18.795Z,24.41
2018-06-19T15:19:44.794Z,24.44
2018-06-19T15:22:10.779Z,24.41
2018-06-19T15:24:36.787Z,24.49
2018-06-19T15:27:02.754Z,24.44
2018-06-19T15:29:28.732Z,24.41
2018-06-19T15:31:54.766Z,24.43
2018-06-19T15:34:20.730Z,24.49
2018-06-19T15:36:46.793Z,24.55
2018-06-19T15:39:12.774Z,24.50
2018-06-19T15:41:38.761Z,24.55
2018-06-19T15:44:04.739Z,24.60
2018-06-19T15:46:30.734Z,24.51
2018-06-19T15:48:56.721Z,24.46
2018-06-19T15:51:22.791Z,24.46
2018-06-19T15:53:48.801Z,24.48
2018-06-19T15:56:14.846Z,24.46
2018-06-19T15:58:40.824Z,24.47
2018-06-19T16:01:06.886Z,24.48
2018-06-19T16:03:32.842Z,24.48
2018-06-19T16:05:58.849Z,24.52
2018-06-19T16:08:24.804Z,24.47
2018-06-19T16:10:50.766Z,24.48
2018-06-19T16:13:16.751Z,24.41
2018-06-19T16:15:42.743Z,24.47
2018-06-19T16:18:08.718Z,24.56
2018-06-19T16:20:34.677Z,24.66
2018-06-19T16:23:00.702Z,24.63
2018-06-19T16:25:26.694Z,24.48
2018-06-19T16:27:52.733Z,24.59
2018-06-19T16:30:18.733Z,24.53
2018-06-19T16:32:44.735Z,24.51
2018-06-19T16:35:10.703Z,24.58
2018-06-19T16:37:36.688Z,24.64
2018-06-19T16:40:02.658Z,24.67
2018-06-19T16:42:28.638Z,24.65
2018-06-19T16:44:54.579Z,24.62
2018-06-19T16:47:20.548Z,24.63
2018-06-19T16:49:46.548Z,24.62
2018-06-19T16:52:12.514Z,24.58
2018-06-19T16:54:38.483Z,24.64
2018-06-19T16:57:04.416Z,24.57
2018-06-19T16:59:30.419Z,24.55
2018-06-19T17:01:56.390Z,24.54
2018-06-19T17:04:22.393Z,24.62
2018-06-19T17:06:48.355Z,24.63
2018-06-19T17:09:14.334Z,24.64
2018-06-19T17:11:40.349Z,24.60
2018-06-19T17:14:06.309Z,24.58
2018-06-19T17:16:32.294Z,24.54
2018-06-19T17:18:58.286Z,24.61
2018-06-19T17:21:24.284Z,24.53
2018-06-19T17:23:50.278Z,24.48
2018-06-19T17:26:16.271Z,24.51
2018-06-19T17:28:42.243Z,24.63
2018-06-19T17:31:08.221Z,24.59
2018-06-19T17:33:34.198Z,24.62
2018-06-19T17:36:00.193Z,24.62
2018-06-19T17:38:26.166Z,24.55
2018-06-19T17:40:52.164Z,24.52
2018-06-19T17:43:18.192Z,24.53
2018-06-19T17:45:44.165Z,24.54
2018-06-19T17:48:10.154Z,24.53
2018-06-19T17:50:36.183Z,24.63
2018-06-19T17:53:02.169Z,24.70
2018-06-19T17:55:28.201Z,24.63
2018-06-19T17:57:54.184Z,24.60
2018-06-19T18:00:20.153Z,24.58
2018-06-19T18:02:46.116Z,24.53
2018-06-19T18:05:12.252Z,24.52
2018-06-19T18:07:38.229Z,24.51
2018-06-19T18:10:04.213Z,24.42
2018-06-19T18:12:30.231Z,24.44
2018-06-19T18:14:56.254Z,24.46
2018-06-19T18:17:22.228Z,24.45
2018-06-19T18:19:48.202Z,24.39
2018-06-19T18:22:14.200Z,24.50
2018-06-19T18:24:40.288Z,24.46
2018-06-19T18:27:06.256Z,24.44
2018-06-19T18:29:32.237Z,24.39
2018-06-19T18:31:58.207Z,24.39
2018-06-19T18:34:24.174Z,24.35
2018-06-19T18:36:50.152Z,24.39
2018-06-19T18:39:16.113Z,24.37
2018-06-19T18:41:42.113Z,24.39
2018-06-19T18:44:08.260Z,24.32
2018-06-19T18:46:34.355Z,24.34
2018-06-19T18:49:00.315Z,24.36
2018-06-19T18:51:26.393Z,24.42
2018-06-19T18:53:52.380Z,24.38
2018-06-19T18:56:18.452Z,24.43
2018-06-19T18:58:44.427Z,24.37
2018-06-19T19:01:10.411Z,24.33
2018-06-19T19:03:36.380Z,24.33
2018-06-19T19:06:02.356Z,24.31
2018-06-19T19:08:28.396Z,24.28
2018-06-19T19:10:54.372Z,24.30
2018-06-19T19:13:20.330Z,24.29
2018-06-19T19:15:46.308Z,24.35
2018-06-19T19:18:12.277Z,24.34
2018-06-19T19:20:38.276Z,24.25
2018-06-19T19:23:04.280Z,24.32
2018-06-19T19:25:30.254Z,24.27
2018-06-19T19:27:56.248Z,24.38
2018-06-19T19:30:22.271Z,24.30
2018-06-19T19:32:48.402Z,24.28
2018-06-19T19:35:14.383Z,24.29
2018-06-19T19:37:40.340Z,24.24
2018-06-19T19:40:06.320Z,24.29
2018-06-19T19:42:32.463Z,24.28
2018-06-19T19:44:58.556Z,24.35
2018-06-19T19:47:24.605Z,24.32
2018-06-19T19:49:50.582Z,24.29
2018-06-19T19:52:16.586Z,24.27
2018-06-19T19:54:42.564Z,24.27
2018-06-19T19:57:08.553Z,24.32
2018-06-19T19:59:34.528Z,24.33
2018-06-19T20:02:00.489Z,24.32
2018-06-19T20:04:26.468Z,24.30
2018-06-19T20:06:52.481Z,24.28
2018-06-19T20:09:18.457Z,24.30
2018-06-19T20:11:44.488Z,24.23
2018-06-19T20:14:10.472Z,24.22
2018-06-19T20:16:36.442Z,24.21
2018-06-19T20:19:02.479Z,24.28
2018-06-19T20:21:28.540Z,24.22
2018-06-19T20:23:54.521Z,24.20
2018-06-19T20:26:20.493Z,24.31
2018-06-19T20:28:46.469Z,24.26
2018-06-19T20:31:12.524Z,24.21
2018-06-19T20:33:38.617Z,24.25
2018-06-19T20:36:04.683Z,24.24
2018-06-19T20:38:30.678Z,24.21
2018-06-19T20:40:56.647Z,24.27
2018-06-19T20:43:22.650Z,24.30
2018-06-19T20:45:48.606Z,24.25
2018-06-19T20:48:14.700Z,24.24
2018-06-19T20:50:40.624Z,24.25
2018-06-19T20:53:06.636Z,24.27
2018-06-19T20:55:32.679Z,24.31
2018-06-19T20:57:58.684Z,24.27
2018-06-19T21:00:24.659Z,24.23
2018-06-19T21:02:50.631Z,24.22
2018-06-19T21:05:16.676Z,24.26
2018-06-19T21:07:42.655Z,24.25
2018-06-19T21:10:08.642Z,24.23
2018-06-19T21:12:34.721Z,24.28
2018-06-19T21:15:00.701Z,24.26
2018-06-19T21:17:26.663Z,24.30
2018-06-19T21:19:52.710Z,24.26
2018-06-19T21:22:18.678Z,24.25
2018-06-19T21:24:44.658Z,24.20
2018-06-19T21:27:10.631Z,24.22
2018-06-19T21:29:36.591Z,24.57
2018-06-19T21:32:02.582Z,24.39
2018-06-19T21:34:28.574Z,24.27
2018-06-19T21:36:54.551Z,24.26
2018-06-19T21:39:20.540Z,24.20
2018-06-19T21:41:46.512Z,24.27
2018-06-19T21:44:12.477Z,24.20
2018-06-19T21:46:38.492Z,24.24
2018-06-19T21:49:04.475Z,24.26
2018-06-19T21:51:30.641Z,24.22
2018-06-19T21:53:56.611Z,24.23
2018-06-19T21:56:22.569Z,24.24
2018-06-19T21:58:48.552Z,24.30
2018-06-19T22:01:14.531Z,24.24
2018-06-19T22:03:40.531Z,24.24
2018-06-19T22:06:06.517Z,24.18
2018-06-19T22:08:32.505Z,24.21
2018-06-19T22:10:58.471Z,24.25
2018-06-19T22:13:24.456Z,24.35
2018-06-19T22:15:50.427Z,24.25
2018-06-19T22:18:16.406Z,24.21
2018-06-19T22:20:42.623Z,24.24
2018-06-19T22:23:08.640Z,24.20
2018-06-19T22:25:34.604Z,24.21
2018-06-19T22:28:00.600Z,24.50
2018-06-19T22:30:26.573Z,24.28
2018-06-19T22:32:52.590Z,24.45
2018-06-19T22:35:18.528Z,24.29
2018-06-19T22:37:44.491Z,24.26
2018-06-19T22:40:10.491Z,24.32
2018-06-19T22:42:36.525Z,24.24
2018-06-19T22:45:02.503Z,24.27
2018-06-19T22:47:28.672Z,24.28
2018-06-19T22:49:54.659Z,24.26
2018-06-19T22:52:20.821Z,24.28
2018-06-19T22:54:46.804Z,24.27
2018-06-19T22:57:12.809Z,24.26
2018-06-19T22:59:38.833Z,24.28
2018-06-19T23:02:04.799Z,24.25
2018-06-19T23:04:30.813Z,24.26
2018-06-19T23:06:56.764Z,24.30
2018-06-19T23:09:22.824Z,24.26
2018-06-19T23:11:48.780Z,24.29
2018-06-19T23:14:14.783Z,24.32
2018-06-19T23:16:40.748Z,24.32
2018-06-19T23:19:06.839Z,24.27
2018-06-19T23:21:32.825Z,24.23
2018-06-19T23:23:58.813Z,24.26
2018-06-19T23:26:24.777Z,24.25
2018-06-19T23:28:50.750Z,24.28
2018-06-19T23:31:16.721Z,24.18
2018-06-19T23:33:42.673Z,24.23
2018-06-19T23:36:08.705Z,24.27
2018-06-19T23:38:34.700Z,24.24
2018-06-19T23:41:01.317Z,24.22
2018-06-19T23:43:27.291Z,24.28
2018-06-19T23:45:53.252Z,24.25
2018-06-19T23:48:19.223Z,24.28
2018-06-19T23:50:45.187Z,24.25
2018-06-19T23:53:11.130Z,24.29
2018-06-19T23:55:37.082Z,24.26
2018-06-19T23:58:03.110Z,24.27
